createdAt,value
2017-04-21T00:00:13.403Z,923.52
2017-04-21T00:00:41.564Z,923.58
2017-04-21T00:01:09.643Z,923.44
2017-04-21T00:02:21.038Z,923.47
2017-04-21T00:02:49.188Z,923.47
2017-04-21T00:03:17.543Z,923.42
2017-04-21T00:03:45.790Z,923.46
2017-04-21T00:04:14.140Z,923.46
2017-04-21T00:04:42.382Z,923.46
2017-04-21T00:05:10.772Z,923.46
2017-04-21T00:05:39.066Z,923.46
2017-04-21T00:06:07.109Z,923.52
2017-04-21T00:06:35.377Z,923.51
2017-04-21T00:07:03.551Z,923.49
2017-04-21T00:08:14.946Z,923.48
2017-04-21T00:08:43.187Z,923.47
2017-04-21T00:09:11.535Z,923.53
2017-04-21T00:09:39.885Z,923.47
2017-04-21T00:10:08.153Z,923.52
2017-04-21T00:10:36.393Z,923.52
2017-04-21T00:11:04.534Z,923.47
2017-04-21T00:11:32.741Z,923.51
2017-04-21T00:12:00.980Z,923.45
2017-04-21T00:12:29.249Z,923.46
2017-04-21T00:12:57.508Z,923.5
2017-04-21T00:14:08.816Z,923.5
2017-04-21T00:14:37.052Z,923.44
2017-04-21T00:15:05.221Z,923.46
2017-04-21T00:15:33.474Z,923.48
2017-04-21T00:16:01.740Z,923.5
2017-04-21T00:16:30.075Z,923.47
2017-04-21T00:16:58.308Z,923.5
2017-04-21T00:17:26.529Z,923.52
2017-04-21T00:17:54.790Z,923.5
2017-04-21T00:18:22.961Z,923.51
2017-04-21T00:18:51.498Z,923.52
2017-04-21T00:20:02.881Z,923.48
2017-04-21T00:20:30.892Z,923.5
2017-04-21T00:20:59.101Z,923.47
2017-04-21T00:21:27.333Z,923.49
2017-04-21T00:21:55.583Z,923.47
2017-04-21T00:22:23.728Z,923.51
2017-04-21T00:22:51.967Z,923.49
2017-04-21T00:23:20.232Z,923.48
2017-04-21T00:23:48.415Z,923.48
2017-04-21T00:24:16.638Z,923.52
2017-04-21T00:24:44.948Z,923.47
2017-04-21T00:25:56.312Z,923.47
2017-04-21T00:26:24.460Z,923.45
2017-04-21T00:26:52.709Z,923.45
2017-04-21T00:27:21.060Z,923.5
2017-04-21T00:27:49.228Z,923.5
2017-04-21T00:28:17.570Z,923.48
2017-04-21T00:28:45.903Z,923.52
2017-04-21T00:29:14.212Z,923.48
2017-04-21T00:29:42.345Z,923.48
2017-04-21T00:30:10.699Z,923.48
2017-04-21T00:30:39.058Z,923.5
2017-04-21T00:31:50.447Z,923.44
2017-04-21T00:32:18.679Z,923.46
2017-04-21T00:32:46.940Z,923.45
2017-04-21T00:33:15.197Z,923.45
2017-04-21T00:33:43.720Z,923.45
2017-04-21T00:34:12.055Z,923.44
2017-04-21T00:34:40.295Z,923.43
2017-04-21T00:35:08.601Z,923.41
2017-04-21T00:35:36.823Z,923.43
2017-04-21T00:36:05.187Z,923.44
2017-04-21T00:36:33.546Z,923.48
2017-04-21T00:37:44.930Z,923.48
2017-04-21T00:38:13.261Z,923.52
2017-04-21T00:38:41.521Z,923.46
2017-04-21T00:39:09.847Z,923.46
2017-04-21T00:39:38.113Z,923.44
2017-04-21T00:40:06.354Z,923.44
2017-04-21T00:40:34.596Z,923.43
2017-04-21T00:41:02.808Z,923.39
2017-04-21T00:41:31.268Z,923.4
2017-04-21T00:41:59.536Z,923.4
2017-04-21T00:42:27.894Z,923.34
2017-04-21T00:43:39.279Z,923.35
2017-04-21T00:44:07.518Z,923.35
2017-04-21T00:44:35.865Z,923.41
2017-04-21T00:45:04.026Z,923.41
2017-04-21T00:45:32.284Z,923.37
2017-04-21T00:46:00.618Z,923.34
2017-04-21T00:46:28.947Z,923.39
2017-04-21T00:46:57.251Z,923.33
2017-04-21T00:47:25.475Z,923.37
2017-04-21T00:47:53.560Z,923.34
2017-04-21T00:48:21.821Z,923.33
2017-04-21T00:49:33.114Z,923.4
2017-04-21T00:50:01.353Z,923.36
2017-04-21T00:50:29.609Z,923.31
2017-04-21T00:50:57.853Z,923.31
2017-04-21T00:51:26.194Z,923.33
2017-04-21T00:51:54.485Z,923.3
2017-04-21T00:52:22.789Z,923.29
2017-04-21T00:52:51.239Z,923.3
2017-04-21T00:53:19.368Z,923.32
2017-04-21T00:53:47.731Z,923.25
2017-04-21T00:54:16.080Z,923.31
2017-04-21T00:55:27.444Z,923.26
2017-04-21T00:55:55.685Z,923.28
2017-04-21T00:56:24.024Z,923.23
2017-04-21T00:56:51.996Z,923.28
2017-04-21T00:57:20.351Z,923.28
2017-04-21T00:57:48.688Z,923.29
2017-04-21T00:58:16.986Z,923.34
2017-04-21T00:58:45.270Z,923.31
2017-04-21T00:59:13.583Z,923.33
2017-04-21T00:59:41.855Z,923.33
2017-04-21T01:00:10.211Z,923.34
2017-04-21T01:01:21.601Z,923.36
2017-04-21T01:01:49.638Z,923.38
2017-04-21T01:02:17.984Z,923.35
2017-04-21T01:02:46.324Z,923.27
2017-04-21T01:03:14.392Z,923.38
2017-04-21T01:03:42.541Z,923.35
2017-04-21T01:04:10.776Z,923.35
2017-04-21T01:04:38.991Z,923.34
2017-04-21T01:05:07.307Z,923.33
2017-04-21T01:05:35.600Z,923.32
2017-04-21T01:06:03.771Z,923.33
2017-04-21T01:07:15.161Z,923.42
2017-04-21T01:07:43.488Z,923.35
2017-04-21T01:08:11.742Z,923.32
2017-04-21T01:08:40.084Z,923.36
2017-04-21T01:09:08.416Z,923.35
2017-04-21T01:09:36.658Z,923.36
2017-04-21T01:10:05.090Z,923.33
2017-04-21T01:10:33.386Z,923.33
2017-04-21T01:11:01.695Z,923.36
2017-04-21T01:11:30.012Z,923.37
2017-04-21T01:11:58.237Z,923.38
2017-04-21T01:13:09.564Z,923.4
2017-04-21T01:13:37.758Z,923.42
2017-04-21T01:14:06.011Z,923.38
2017-04-21T01:14:34.160Z,923.35
2017-04-21T01:15:02.420Z,923.43
2017-04-21T01:15:30.638Z,923.35
2017-04-21T01:15:58.825Z,923.41
2017-04-21T01:16:27.112Z,923.35
2017-04-21T01:16:55.391Z,923.42
2017-04-21T01:17:23.724Z,923.41
2017-04-21T01:17:51.965Z,923.38
2017-04-21T01:19:03.337Z,923.43
2017-04-21T01:19:31.667Z,923.32
2017-04-21T01:19:59.917Z,923.28
2017-04-21T01:20:28.389Z,923.38
2017-04-21T01:20:56.701Z,923.32
2017-04-21T01:21:25.030Z,923.31
2017-04-21T01:21:53.361Z,923.37
2017-04-21T01:22:21.788Z,923.37
2017-04-21T01:22:50.016Z,923.34
2017-04-21T01:23:18.162Z,923.34
2017-04-21T01:23:46.473Z,923.38
2017-04-21T01:24:57.715Z,923.32
2017-04-21T01:25:26.025Z,923.4
2017-04-21T01:25:54.372Z,923.3
2017-04-21T01:26:22.720Z,923.29
2017-04-21T01:26:50.880Z,923.34
2017-04-21T01:27:19.120Z,923.34
2017-04-21T01:27:47.359Z,923.36
2017-04-21T01:28:15.576Z,923.31
2017-04-21T01:28:43.903Z,923.34
2017-04-21T01:29:12.208Z,923.38
2017-04-21T01:29:40.471Z,923.26
2017-04-21T01:30:51.771Z,923.35
2017-04-21T01:31:20.095Z,923.34
2017-04-21T01:31:48.356Z,923.34
2017-04-21T01:32:16.516Z,923.34
2017-04-21T01:32:44.786Z,923.32
2017-04-21T01:33:13.120Z,923.34
2017-04-21T01:33:41.455Z,923.33
2017-04-21T01:34:09.633Z,923.36
2017-04-21T01:34:37.818Z,923.35
2017-04-21T01:35:06.135Z,923.37
2017-04-21T01:35:34.464Z,923.35
2017-04-21T01:36:45.843Z,923.35
2017-04-21T01:37:14.130Z,923.37
2017-04-21T01:37:42.281Z,923.38
2017-04-21T01:38:10.529Z,923.41
2017-04-21T01:38:38.795Z,923.36
2017-04-21T01:39:07.128Z,923.37
2017-04-21T01:39:35.324Z,923.38
2017-04-21T01:40:03.598Z,923.35
2017-04-21T01:40:31.881Z,923.37
2017-04-21T01:41:00.230Z,923.43
2017-04-21T01:41:28.542Z,923.4
2017-04-21T01:42:39.906Z,923.42
2017-04-21T01:43:08.240Z,923.42
2017-04-21T01:43:36.591Z,923.46
2017-04-21T01:44:04.837Z,923.43
2017-04-21T01:44:32.964Z,923.47
2017-04-21T01:45:01.205Z,923.48
2017-04-21T01:45:29.296Z,923.49
2017-04-21T01:45:57.586Z,923.5
2017-04-21T01:46:25.784Z,923.49
2017-04-21T01:46:54.139Z,923.52
2017-04-21T01:47:22.514Z,923.55
2017-04-21T01:48:33.867Z,923.53
2017-04-21T01:49:02.165Z,923.54
2017-04-21T01:49:30.330Z,923.55
2017-04-21T01:49:58.581Z,923.54
2017-04-21T01:50:26.718Z,923.52
2017-04-21T01:50:55.042Z,923.58
2017-04-21T01:51:23.329Z,923.53
2017-04-21T01:51:51.586Z,923.59
2017-04-21T01:52:19.720Z,923.58
2017-04-21T01:52:48.074Z,923.58
2017-04-21T01:53:16.329Z,923.56
2017-04-21T01:54:27.714Z,923.53
2017-04-21T01:54:55.993Z,923.56
2017-04-21T01:55:24.219Z,923.53
2017-04-21T01:55:52.560Z,923.56
2017-04-21T01:56:20.912Z,923.54
2017-04-21T01:56:49.064Z,923.5
2017-04-21T01:57:17.400Z,923.53
2017-04-21T01:57:45.710Z,923.52
2017-04-21T01:58:13.939Z,923.49
2017-04-21T01:58:42.205Z,923.52
2017-04-21T01:59:10.557Z,923.5
2017-04-21T02:00:21.945Z,923.54
2017-04-21T02:00:50.276Z,923.57
2017-04-21T02:01:18.530Z,923.6
2017-04-21T02:01:46.877Z,923.57
2017-04-21T02:02:15.143Z,923.56
2017-04-21T02:02:43.383Z,923.59
2017-04-21T02:03:11.713Z,923.59
2017-04-21T02:03:40.022Z,923.53
2017-04-21T02:04:08.347Z,923.55
2017-04-21T02:04:36.709Z,923.56
2017-04-21T02:05:05.067Z,923.55
2017-04-21T02:06:16.367Z,923.51
2017-04-21T02:06:44.714Z,923.5
2017-04-21T02:07:13.064Z,923.47
2017-04-21T02:07:41.407Z,923.53
2017-04-21T02:08:09.605Z,923.46
2017-04-21T02:08:37.853Z,923.44
2017-04-21T02:09:06.159Z,923.45
2017-04-21T02:09:34.283Z,923.47
2017-04-21T02:10:02.604Z,923.42
2017-04-21T02:10:30.965Z,923.45
2017-04-21T02:10:59.327Z,923.42
2017-04-21T02:12:10.624Z,923.42
2017-04-21T02:12:38.952Z,923.45
2017-04-21T02:13:07.302Z,923.44
2017-04-21T02:13:35.556Z,923.44
2017-04-21T02:14:03.906Z,923.37
2017-04-21T02:14:32.243Z,923.45
2017-04-21T02:15:00.570Z,923.45
2017-04-21T02:15:28.878Z,923.41
2017-04-21T02:15:57.199Z,923.39
2017-04-21T02:16:25.472Z,923.43
2017-04-21T02:16:53.864Z,923.46
2017-04-21T02:18:05.260Z,923.46
2017-04-21T02:18:33.592Z,923.32
2017-04-21T02:19:01.942Z,923.37
2017-04-21T02:19:30.288Z,923.33
2017-04-21T02:19:58.549Z,923.3
2017-04-21T02:20:27.059Z,923.29
2017-04-21T02:20:55.387Z,923.3
2017-04-21T02:21:23.829Z,923.34
2017-04-21T02:21:52.056Z,923.32
2017-04-21T02:22:20.321Z,923.32
2017-04-21T02:22:48.681Z,923.35
2017-04-21T02:24:00.073Z,923.29
2017-04-21T02:24:28.312Z,923.4
2017-04-21T02:24:56.663Z,923.35
2017-04-21T02:25:25.003Z,923.34
2017-04-21T02:25:53.262Z,923.33
2017-04-21T02:26:21.592Z,923.35
2017-04-21T02:26:49.831Z,923.37
2017-04-21T02:27:18.040Z,923.37
2017-04-21T02:27:46.362Z,923.36
2017-04-21T02:28:14.729Z,923.37
2017-04-21T02:28:43.082Z,923.38
2017-04-21T02:29:54.475Z,923.44
2017-04-21T02:30:22.621Z,923.42
2017-04-21T02:30:50.872Z,923.48
2017-04-21T02:31:19.124Z,923.41
2017-04-21T02:31:47.474Z,923.46
2017-04-21T02:32:15.811Z,923.42
2017-04-21T02:32:44.145Z,923.45
2017-04-21T02:33:12.451Z,923.47
2017-04-21T02:33:40.679Z,923.45
2017-04-21T02:34:08.859Z,923.5
2017-04-21T02:34:37.219Z,923.5
2017-04-21T02:35:48.606Z,923.43
2017-04-21T02:36:16.922Z,923.46
2017-04-21T02:36:45.180Z,923.4
2017-04-21T02:37:13.431Z,923.42
2017-04-21T02:37:41.783Z,923.45
2017-04-21T02:38:09.926Z,923.4
2017-04-21T02:38:38.071Z,923.41
2017-04-21T02:39:06.383Z,923.41
2017-04-21T02:39:34.612Z,923.41
2017-04-21T02:40:02.881Z,923.44
2017-04-21T02:40:31.239Z,923.41
2017-04-21T02:41:42.628Z,923.39
2017-04-21T02:42:10.861Z,923.46
2017-04-21T02:42:39.017Z,923.44
2017-04-21T02:43:07.265Z,923.43
2017-04-21T02:43:35.622Z,923.4
2017-04-21T02:44:03.958Z,923.43
2017-04-21T02:44:32.286Z,923.4
2017-04-21T02:45:00.589Z,923.39
2017-04-21T02:45:29.017Z,923.4
2017-04-21T02:45:57.377Z,923.36
2017-04-21T02:46:25.577Z,923.37
2017-04-21T02:47:36.971Z,923.39
2017-04-21T02:48:05.296Z,923.42
2017-04-21T02:48:33.748Z,923.41
2017-04-21T02:49:01.905Z,923.33
2017-04-21T02:49:30.165Z,923.36
2017-04-21T02:49:58.408Z,923.37
2017-04-21T02:50:26.737Z,923.39
2017-04-21T02:50:55.041Z,923.4
2017-04-21T02:51:23.273Z,923.38
2017-04-21T02:51:51.536Z,923.39
2017-04-21T02:52:20.032Z,923.43
2017-04-21T02:53:31.423Z,923.43
2017-04-21T02:53:59.662Z,923.4
2017-04-21T02:54:28.097Z,923.4
2017-04-21T02:54:56.436Z,923.44
2017-04-21T02:55:24.604Z,923.42
2017-04-21T02:55:52.936Z,923.39
2017-04-21T02:56:21.176Z,923.4
2017-04-21T02:56:49.476Z,923.37
2017-04-21T02:57:17.798Z,923.42
2017-04-21T02:57:46.164Z,923.43
2017-04-21T02:58:14.430Z,923.41
2017-04-21T02:59:25.818Z,923.4
2017-04-21T02:59:54.416Z,923.44
2017-04-21T03:00:22.765Z,923.5
2017-04-21T03:00:51.021Z,923.45
2017-04-21T03:01:19.226Z,923.41
2017-04-21T03:01:47.563Z,923.43
2017-04-21T03:02:15.889Z,923.41
2017-04-21T03:02:44.199Z,923.47
2017-04-21T03:03:12.334Z,923.45
2017-04-21T03:03:40.607Z,923.47
2017-04-21T03:04:08.963Z,923.47
2017-04-21T03:05:20.352Z,923.43
2017-04-21T03:05:48.612Z,923.4
2017-04-21T03:06:16.963Z,923.44
2017-04-21T03:06:45.208Z,923.46
2017-04-21T03:07:13.562Z,923.46
2017-04-21T03:07:41.893Z,923.48
2017-04-21T03:08:10.244Z,923.46
2017-04-21T03:08:38.555Z,923.49
2017-04-21T03:09:06.930Z,923.47
2017-04-21T03:09:35.287Z,923.49
2017-04-21T03:10:03.643Z,923.49
2017-04-21T03:11:15.038Z,923.48
2017-04-21T03:11:43.279Z,923.5
2017-04-21T03:12:11.534Z,923.49
2017-04-21T03:12:39.789Z,923.51
2017-04-21T03:13:08.041Z,923.55
2017-04-21T03:13:36.280Z,923.57
2017-04-21T03:14:04.513Z,923.53
2017-04-21T03:14:32.729Z,923.52
2017-04-21T03:15:00.958Z,923.54
2017-04-21T03:15:29.325Z,923.52
2017-04-21T03:15:57.594Z,923.53
2017-04-21T03:17:08.985Z,923.57
2017-04-21T03:17:37.314Z,923.51
2017-04-21T03:18:05.667Z,923.56
2017-04-21T03:18:34.012Z,923.5
2017-04-21T03:19:02.367Z,923.51
2017-04-21T03:19:30.703Z,923.52
2017-04-21T03:19:59.034Z,923.51
2017-04-21T03:20:27.335Z,923.49
2017-04-21T03:20:55.654Z,923.49
2017-04-21T03:21:23.921Z,923.51
2017-04-21T03:21:52.093Z,923.51
2017-04-21T03:23:03.394Z,923.48
2017-04-21T03:23:31.638Z,923.5
2017-04-21T03:23:59.988Z,923.48
2017-04-21T03:24:28.333Z,923.49
2017-04-21T03:24:56.312Z,923.5
2017-04-21T03:25:24.649Z,923.46
2017-04-21T03:25:52.879Z,923.43
2017-04-21T03:26:21.301Z,923.47
2017-04-21T03:26:49.621Z,923.42
2017-04-21T03:27:17.894Z,923.47
2017-04-21T03:27:46.254Z,923.48
2017-04-21T03:28:57.650Z,923.41
2017-04-21T03:29:25.886Z,923.46
2017-04-21T03:29:54.230Z,923.47
2017-04-21T03:30:22.479Z,923.45
2017-04-21T03:30:50.749Z,923.45
2017-04-21T03:31:18.989Z,923.48
2017-04-21T03:31:47.317Z,923.44
2017-04-21T03:32:15.531Z,923.45
2017-04-21T03:32:43.853Z,923.42
2017-04-21T03:33:12.218Z,923.44
2017-04-21T03:33:40.481Z,923.41
2017-04-21T03:34:51.868Z,923.42
2017-04-21T03:35:20.197Z,923.42
2017-04-21T03:35:48.447Z,923.41
2017-04-21T03:36:16.606Z,923.42
2017-04-21T03:36:44.958Z,923.37
2017-04-21T03:37:13.289Z,923.37
2017-04-21T03:37:41.620Z,923.4
2017-04-21T03:38:09.829Z,923.39
2017-04-21T03:38:38.150Z,923.38
2017-04-21T03:39:06.505Z,923.37
2017-04-21T03:39:34.864Z,923.34
2017-04-21T03:40:46.252Z,923.4
2017-04-21T03:41:14.407Z,923.38
2017-04-21T03:41:42.758Z,923.35
2017-04-21T03:42:11.007Z,923.35
2017-04-21T03:42:39.358Z,923.41
2017-04-21T03:43:07.605Z,923.36
2017-04-21T03:43:35.929Z,923.37
2017-04-21T03:44:04.444Z,923.37
2017-04-21T03:44:32.769Z,923.33
2017-04-21T03:45:01.131Z,923.36
2017-04-21T03:45:29.399Z,923.32
2017-04-21T03:46:40.788Z,923.35
2017-04-21T03:47:09.023Z,923.27
2017-04-21T03:47:37.276Z,923.26
2017-04-21T03:48:05.434Z,923.3
2017-04-21T03:48:33.789Z,923.3
2017-04-21T03:49:02.032Z,923.27
2017-04-21T03:49:30.363Z,923.3
2017-04-21T03:49:58.482Z,923.31
2017-04-21T03:50:26.618Z,923.3
2017-04-21T03:50:54.939Z,923.28
2017-04-21T03:51:23.118Z,923.25
2017-04-21T03:52:34.512Z,923.26
2017-04-21T03:53:02.852Z,923.28
2017-04-21T03:53:31.191Z,923.28
2017-04-21T03:53:59.442Z,923.28
2017-04-21T03:54:27.700Z,923.24
2017-04-21T03:54:56.031Z,923.25
2017-04-21T03:55:24.336Z,923.26
2017-04-21T03:55:52.551Z,923.27
2017-04-21T03:56:20.866Z,923.25
2017-04-21T03:56:49.044Z,923.25
2017-04-21T03:57:17.406Z,923.25
2017-04-21T03:58:28.705Z,923.26
2017-04-21T03:58:57.036Z,923.19
2017-04-21T03:59:25.284Z,923.2
2017-04-21T03:59:53.446Z,923.2
2017-04-21T04:00:21.608Z,923.19
2017-04-21T04:00:49.938Z,923.13
2017-04-21T04:01:18.267Z,923.15
2017-04-21T04:01:46.573Z,923.1
2017-04-21T04:02:14.800Z,923.12
2017-04-21T04:02:43.073Z,923.08
2017-04-21T04:03:11.434Z,923.12
2017-04-21T04:04:22.865Z,923.11
2017-04-21T04:04:51.196Z,923.09
2017-04-21T04:05:19.451Z,923.05
2017-04-21T04:05:47.699Z,923.01
2017-04-21T04:06:15.768Z,923.05
2017-04-21T04:06:44.171Z,923.05
2017-04-21T04:07:12.498Z,923.09
2017-04-21T04:07:40.721Z,922.99
2017-04-21T04:08:08.978Z,923.01
2017-04-21T04:08:37.133Z,923
2017-04-21T04:09:05.506Z,923.02
2017-04-21T04:10:16.904Z,923.03
2017-04-21T04:10:45.216Z,922.97
2017-04-21T04:11:13.552Z,923
2017-04-21T04:11:41.820Z,923.01
2017-04-21T04:12:10.084Z,922.97
2017-04-21T04:12:38.335Z,923.01
2017-04-21T04:13:06.591Z,923.01
2017-04-21T04:13:34.935Z,923.02
2017-04-21T04:14:03.278Z,923
2017-04-21T04:14:31.591Z,923.03
2017-04-21T04:14:59.958Z,922.99
2017-04-21T04:16:11.367Z,923.04
2017-04-21T04:16:39.764Z,923.05
2017-04-21T04:17:08.096Z,923.02
2017-04-21T04:17:36.270Z,922.97
2017-04-21T04:18:04.635Z,922.99
2017-04-21T04:18:32.980Z,922.98
2017-04-21T04:19:01.240Z,923.03
2017-04-21T04:19:29.584Z,922.99
2017-04-21T04:19:57.934Z,923.01
2017-04-21T04:20:26.186Z,922.95
2017-04-21T04:20:54.455Z,923
2017-04-21T04:22:05.769Z,922.98
2017-04-21T04:22:34.167Z,923
2017-04-21T04:23:02.412Z,923
2017-04-21T04:23:30.769Z,923.01
2017-04-21T04:23:59.037Z,923
2017-04-21T04:24:27.287Z,922.98
2017-04-21T04:24:55.543Z,923.01
2017-04-21T04:25:23.892Z,922.99
2017-04-21T04:25:52.234Z,923.01
2017-04-21T04:26:20.689Z,923.01
2017-04-21T04:26:49.052Z,923.02
2017-04-21T04:28:00.552Z,923.01
2017-04-21T04:28:28.949Z,923.03
2017-04-21T04:28:57.192Z,922.97
2017-04-21T04:29:25.773Z,922.97
2017-04-21T04:29:54.040Z,922.99
2017-04-21T04:30:22.389Z,922.98
2017-04-21T04:30:50.768Z,922.99
2017-04-21T04:31:18.919Z,922.97
2017-04-21T04:31:47.264Z,922.98
2017-04-21T04:32:15.569Z,922.98
2017-04-21T04:32:43.752Z,922.96
2017-04-21T04:33:55.155Z,922.94
2017-04-21T04:34:23.463Z,922.97
2017-04-21T04:34:51.798Z,923
2017-04-21T04:35:20.067Z,922.95
2017-04-21T04:35:48.428Z,922.97
2017-04-21T04:36:16.778Z,922.98
2017-04-21T04:36:45.037Z,922.93
2017-04-21T04:37:13.378Z,922.98
2017-04-21T04:37:41.544Z,922.94
2017-04-21T04:38:09.951Z,922.91
2017-04-21T04:38:38.503Z,922.93
2017-04-21T04:39:49.815Z,922.95
2017-04-21T04:40:18.216Z,922.94
2017-04-21T04:40:46.460Z,922.93
2017-04-21T04:41:14.632Z,922.93
2017-04-21T04:41:42.903Z,922.94
2017-04-21T04:42:11.161Z,922.93
2017-04-21T04:42:39.418Z,922.93
2017-04-21T04:43:07.779Z,922.94
2017-04-21T04:43:36.131Z,922.96
2017-04-21T04:44:04.534Z,922.9
2017-04-21T04:44:32.802Z,922.92
2017-04-21T04:45:44.212Z,922.92
2017-04-21T04:46:12.602Z,922.94
2017-04-21T04:46:40.935Z,922.93
2017-04-21T04:47:09.297Z,922.92
2017-04-21T04:47:37.765Z,922.93
2017-04-21T04:48:06.012Z,922.91
2017-04-21T04:48:34.093Z,922.91
2017-04-21T04:49:02.339Z,922.87
2017-04-21T04:49:30.690Z,922.89
2017-04-21T04:49:59.100Z,922.89
2017-04-21T04:50:27.283Z,922.88
2017-04-21T04:51:38.684Z,922.88
2017-04-21T04:52:06.980Z,922.9
2017-04-21T04:52:35.316Z,922.86
2017-04-21T04:53:03.672Z,922.88
2017-04-21T04:53:31.944Z,922.89
2017-04-21T04:54:00.283Z,922.9
2017-04-21T04:54:28.462Z,922.86
2017-04-21T04:54:56.803Z,922.86
2017-04-21T04:55:25.056Z,922.89
2017-04-21T04:55:53.463Z,922.85
2017-04-21T04:56:21.737Z,922.86
2017-04-21T04:57:33.151Z,922.85
2017-04-21T04:58:01.460Z,922.88
2017-04-21T04:58:29.796Z,922.87
2017-04-21T04:58:58.158Z,922.86
2017-04-21T04:59:26.417Z,922.8
2017-04-21T04:59:54.666Z,922.84
2017-04-21T05:00:23.024Z,922.85
2017-04-21T05:00:51.370Z,922.81
2017-04-21T05:01:19.718Z,922.82
2017-04-21T05:01:48.125Z,922.84
2017-04-21T05:02:16.426Z,922.82
2017-04-21T05:03:27.713Z,922.81
2017-04-21T05:03:56.021Z,922.8
2017-04-21T05:04:24.273Z,922.78
2017-04-21T05:04:52.818Z,922.77
2017-04-21T05:05:21.087Z,922.77
2017-04-21T05:05:49.431Z,922.75
2017-04-21T05:06:17.692Z,922.76
2017-04-21T05:06:46.033Z,922.74
2017-04-21T05:07:14.292Z,922.77
2017-04-21T05:07:42.696Z,922.74
2017-04-21T05:08:10.967Z,922.75
2017-04-21T05:09:22.368Z,922.74
2017-04-21T05:09:50.674Z,922.75
2017-04-21T05:10:18.920Z,922.75
2017-04-21T05:10:47.186Z,922.77
2017-04-21T05:11:15.454Z,922.76
2017-04-21T05:11:43.711Z,922.76
2017-04-21T05:12:11.970Z,922.69
2017-04-21T05:12:40.312Z,922.67
2017-04-21T05:13:08.653Z,922.75
2017-04-21T05:13:37.057Z,922.72
2017-04-21T05:14:05.331Z,922.72
2017-04-21T05:15:16.551Z,922.75
2017-04-21T05:15:44.948Z,922.7
2017-04-21T05:16:13.288Z,922.71
2017-04-21T05:16:41.649Z,922.71
2017-04-21T05:17:10.009Z,922.76
2017-04-21T05:17:38.163Z,922.73
2017-04-21T05:18:06.421Z,922.73
2017-04-21T05:18:34.762Z,922.7
2017-04-21T05:19:03.108Z,922.69
2017-04-21T05:19:31.516Z,922.65
2017-04-21T05:19:59.792Z,922.68
2017-04-21T05:21:11.107Z,922.72
2017-04-21T05:21:39.408Z,922.68
2017-04-21T05:22:07.566Z,922.67
2017-04-21T05:22:35.879Z,922.65
2017-04-21T05:23:04.149Z,922.66
2017-04-21T05:23:32.487Z,922.64
2017-04-21T05:24:00.746Z,922.62
2017-04-21T05:24:28.991Z,922.66
2017-04-21T05:24:57.252Z,922.65
2017-04-21T05:25:25.468Z,922.66
2017-04-21T05:25:53.641Z,922.61
2017-04-21T05:27:04.965Z,922.64
2017-04-21T05:27:33.355Z,922.62
2017-04-21T05:28:01.606Z,922.66
2017-04-21T05:28:29.967Z,922.62
2017-04-21T05:28:58.238Z,922.6
2017-04-21T05:29:26.520Z,922.61
2017-04-21T05:29:54.779Z,922.61
2017-04-21T05:30:23.126Z,922.63
2017-04-21T05:30:51.472Z,922.6
2017-04-21T05:31:19.684Z,922.63
2017-04-21T05:31:47.864Z,922.6
2017-04-21T05:32:59.266Z,922.62
2017-04-21T05:33:27.663Z,922.59
2017-04-21T05:33:55.909Z,922.61
2017-04-21T05:34:24.090Z,922.63
2017-04-21T05:34:52.445Z,922.61
2017-04-21T05:35:20.786Z,922.6
2017-04-21T05:35:49.049Z,922.64
2017-04-21T05:36:17.393Z,922.6
2017-04-21T05:36:45.653Z,922.61
2017-04-21T05:37:13.962Z,922.62
2017-04-21T05:37:42.328Z,922.6
2017-04-21T05:38:53.731Z,922.6
2017-04-21T05:39:22.038Z,922.61
2017-04-21T05:39:50.379Z,922.6
2017-04-21T05:40:18.738Z,922.6
2017-04-21T05:40:47.100Z,922.6
2017-04-21T05:41:15.452Z,922.58
2017-04-21T05:41:43.797Z,922.59
2017-04-21T05:42:12.138Z,922.58
2017-04-21T05:42:40.392Z,922.56
2017-04-21T05:43:08.705Z,922.55
2017-04-21T05:43:37.068Z,922.56
2017-04-21T05:44:48.281Z,922.54
2017-04-21T05:45:16.583Z,922.54
2017-04-21T05:45:44.830Z,922.5
2017-04-21T05:46:13.099Z,922.51
2017-04-21T05:46:41.458Z,922.56
2017-04-21T05:47:09.711Z,922.54
2017-04-21T05:47:37.969Z,922.52
2017-04-21T05:48:06.301Z,922.53
2017-04-21T05:48:34.558Z,922.52
2017-04-21T05:49:02.866Z,922.56
2017-04-21T05:49:31.062Z,922.53
2017-04-21T05:50:42.257Z,922.53
2017-04-21T05:51:10.654Z,922.56
2017-04-21T05:51:38.996Z,922.55
2017-04-21T05:52:07.270Z,922.59
2017-04-21T05:52:35.534Z,922.54
2017-04-21T05:53:03.690Z,922.57
2017-04-21T05:53:32.050Z,922.52
2017-04-21T05:54:00.395Z,922.52
2017-04-21T05:54:28.751Z,922.57
2017-04-21T05:54:57.065Z,922.55
2017-04-21T05:55:25.427Z,922.53
2017-04-21T05:56:36.826Z,922.54
2017-04-21T05:57:05.222Z,922.54
2017-04-21T05:57:33.558Z,922.54
2017-04-21T05:58:01.826Z,922.51
2017-04-21T05:58:30.181Z,922.51
2017-04-21T05:58:58.528Z,922.5
2017-04-21T05:59:26.792Z,922.51
2017-04-21T05:59:55.042Z,922.54
2017-04-21T06:00:23.109Z,922.5
2017-04-21T06:00:51.324Z,922.5
2017-04-21T06:01:19.682Z,922.48
2017-04-21T06:02:30.891Z,922.48
2017-04-21T06:02:59.292Z,922.41
2017-04-21T06:03:27.671Z,922.4
2017-04-21T06:03:55.940Z,922.43
2017-04-21T06:04:24.204Z,922.43
2017-04-21T06:04:52.519Z,922.44
2017-04-21T06:05:20.779Z,922.4
2017-04-21T06:05:48.941Z,922.4
2017-04-21T06:06:17.285Z,922.42
2017-04-21T06:06:45.586Z,922.39
2017-04-21T06:07:13.860Z,922.41
2017-04-21T06:08:25.171Z,922.39
2017-04-21T06:08:53.476Z,922.38
2017-04-21T06:09:21.725Z,922.36
2017-04-21T06:09:50.086Z,922.39
2017-04-21T06:10:18.363Z,922.39
2017-04-21T06:10:46.617Z,922.4
2017-04-21T06:11:15.017Z,922.41
2017-04-21T06:11:43.370Z,922.38
2017-04-21T06:12:11.712Z,922.4
2017-04-21T06:12:39.837Z,922.4
2017-04-21T06:13:08.100Z,922.42
2017-04-21T06:14:19.329Z,922.43
2017-04-21T06:14:47.733Z,922.43
2017-04-21T06:15:15.980Z,922.5
2017-04-21T06:15:44.251Z,922.48
2017-04-21T06:16:12.537Z,922.5
2017-04-21T06:16:40.790Z,922.57
2017-04-21T06:17:09.181Z,922.56
2017-04-21T06:17:37.516Z,922.62
2017-04-21T06:18:05.866Z,922.63
2017-04-21T06:18:34.107Z,922.69
2017-04-21T06:19:02.379Z,922.72
2017-04-21T06:20:13.782Z,922.76
2017-04-21T06:20:42.181Z,922.82
2017-04-21T06:21:10.526Z,922.86
2017-04-21T06:21:38.815Z,922.9
2017-04-21T06:22:07.080Z,922.94
2017-04-21T06:22:35.422Z,922.97
2017-04-21T06:23:03.687Z,923.04
2017-04-21T06:23:31.939Z,923.07
2017-04-21T06:24:00.289Z,923.09
2017-04-21T06:24:28.601Z,923.11
2017-04-21T06:24:56.874Z,923.1
2017-04-21T06:26:08.281Z,923.09
2017-04-21T06:26:36.672Z,922.95
2017-04-21T06:27:04.830Z,922.95
2017-04-21T06:27:33.189Z,922.88
2017-04-21T06:28:01.488Z,922.87
2017-04-21T06:28:29.750Z,922.85
2017-04-21T06:28:58.125Z,922.92
2017-04-21T06:29:26.388Z,922.88
2017-04-21T06:29:54.715Z,922.94
2017-04-21T06:30:23.065Z,922.96
2017-04-21T06:30:51.250Z,923
2017-04-21T06:32:02.465Z,923.04
2017-04-21T06:32:30.795Z,923.02
2017-04-21T06:32:59.140Z,923.03
2017-04-21T06:33:27.499Z,923
2017-04-21T06:33:55.782Z,922.96
2017-04-21T06:34:24.139Z,922.98
2017-04-21T06:34:52.520Z,922.95
2017-04-21T06:35:20.781Z,923
2017-04-21T06:35:48.928Z,923.02
2017-04-21T06:36:17.282Z,923.05
2017-04-21T06:36:45.572Z,923.11
2017-04-21T06:37:56.974Z,923.15
2017-04-21T06:38:25.329Z,923.22
2017-04-21T06:38:53.600Z,923.22
2017-04-21T06:39:21.739Z,923.2
2017-04-21T06:39:50.102Z,923.21
2017-04-21T06:40:18.258Z,923.18
2017-04-21T06:40:46.529Z,923.13
2017-04-21T06:41:14.866Z,923.15
2017-04-21T06:41:43.222Z,923.11
2017-04-21T06:42:11.624Z,923.15
2017-04-21T06:42:39.799Z,923.14
2017-04-21T06:43:51.168Z,923.17
2017-04-21T06:44:19.597Z,923.16